Wetterdaten: Woche 23.08.10 - 29.08.10 (KW34)
Datum Zeit Temperatur Luftfeuchte Luftdruck Niederschlag Windrichtung Sonnenschein Solar Wind
23.08.2010 00:00 18,4 C 89 % 1012,2 hPa 0,0 l/m N 0,00 h 0 W/m 0,0 km/h (0 Bft)
23.08.2010 01:00 17,7 C 93 % 1011,5 hPa 0,0 l/m N 0,00 h 0 W/m 0,0 km/h (0 Bft)
23.08.2010 02:00 17,1 C 95 % 1010,5 hPa 0,0 l/m N 0,00 h 0 W/m 0,0 km/h (0 Bft)
23.08.2010 03:00 17,1 C 95 % 1009,6 hPa 0,0 l/m N 0,00 h 0 W/m 0,5 km/h (0 Bft)
23.08.2010 04:00 16,8 C 96 % 1008,9 hPa 0,0 l/m N 0,00 h 0 W/m 0,4 km/h (0 Bft)
23.08.2010 05:00 16,9 C 96 % 1008,5 hPa 0,0 l/m N 0,00 h 0 W/m 1,3 km/h (1 Bft)
23.08.2010 06:00 16,9 C 96 % 1008,1 hPa 0,0 l/m N 0,08 h 15 W/m 0,8 km/h (0 Bft)
23.08.2010 07:00 17,2 C 96 % 1007,5 hPa 0,0 l/m N 0,33 h 85 W/m 0,4 km/h (0 Bft)
23.08.2010 08:00 18,8 C 92 % 1007,1 hPa 0,0 l/m W 0,33 h 138 W/m 3,6 km/h (1 Bft)
23.08.2010 09:00 20,9 C 84 % 1007,3 hPa 0,0 l/m SW 0,08 h 217 W/m 12,4 km/h (3 Bft)
23.08.2010 10:00 22,8 C 72 % 1008,2 hPa 0,0 l/m W-SW 0,17 h 276 W/m 24,4 km/h (4 Bft)
23.08.2010 11:00 23,0 C 68 % 1008,6 hPa 0,0 l/m SW 0,17 h 326 W/m 22,8 km/h (4 Bft)
23.08.2010 12:00 23,2 C 69 % 1008,2 hPa 0,0 l/m W 0,50 h 460 W/m 22,2 km/h (4 Bft)
23.08.2010 13:00 22,5 C 71 % 1007,8 hPa 0,0 l/m W-SW 0,00 h 246 W/m 18,6 km/h (3 Bft)
23.08.2010 14:00 21,9 C 75 % 1006,9 hPa 0,0 l/m SW 0,00 h 227 W/m 18,4 km/h (3 Bft)
23.08.2010 15:00 21,9 C 76 % 1006,2 hPa 0,0 l/m W-SW 0,00 h 118 W/m 11,5 km/h (2 Bft)
23.08.2010 16:00 21,6 C 81 % 1005,7 hPa 0,0 l/m W-SW 0,00 h 113 W/m 8,4 km/h (2 Bft)
23.08.2010 17:00 22,6 C 78 % 1005,5 hPa 0,0 l/m W-SW 0,08 h 168 W/m 9,3 km/h (2 Bft)
23.08.2010 18:00 22,0 C 82 % 1005,2 hPa 0,0 l/m SW 0,00 h 52 W/m 3,5 km/h (1 Bft)
23.08.2010 19:00 21,2 C 87 % 1005,2 hPa 0,0 l/m SW 0,00 h 32 W/m 3,7 km/h (1 Bft)
23.08.2010 20:00 20,3 C 86 % 1005,2 hPa 0,0 l/m W-SW 0,00 h 6 W/m 4,8 km/h (1 Bft)
23.08.2010 21:00 19,3 C 86 % 1005,6 hPa 0,0 l/m SW 0,00 h 0 W/m 8,6 km/h (2 Bft)
23.08.2010 22:00 18,9 C 88 % 1005,9 hPa 0,0 l/m SW 0,00 h 0 W/m 6,3 km/h (2 Bft)
23.08.2010 23:00 18,7 C 90 % 1006,0 hPa 0,0 l/m SW 0,00 h 0 W/m 6,0 km/h (2 Bft)
24.08.2010 00:00 18,7 C 90 % 1006,7 hPa 0,0 l/m SW 0,00 h 0 W/m 2,9 km/h (1 Bft)
24.08.2010 01:00 18,3 C 93 % 1006,9 hPa 2,4 l/m W-SW 0,00 h 0 W/m 4,6 km/h (1 Bft)
24.08.2010 02:00 17,9 C 95 % 1007,2 hPa 0,0 l/m SW 0,00 h 0 W/m 10,1 km/h (2 Bft)
24.08.2010 03:00 17,4 C 97 % 1007,1 hPa 0,2 l/m SW 0,00 h 0 W/m 10,7 km/h (2 Bft)
24.08.2010 04:00 16,9 C 97 % 1007,1 hPa 0,0 l/m SW 0,00 h 0 W/m 14,0 km/h (3 Bft)
24.08.2010 05:00 16,7 C 98 % 1007,1 hPa 0,0 l/m SW 0,00 h 0 W/m 14,1 km/h (3 Bft)
24.08.2010 06:00 16,6 C 97 % 1007,1 hPa 0,0 l/m SW 0,00 h 13 W/m 11,7 km/h (2 Bft)
24.08.2010 07:00 16,8 C 97 % 1007,6 hPa 0,0 l/m SW 0,00 h 27 W/m 10,1 km/h (2 Bft)
24.08.2010 08:00 17,7 C 96 % 1007,7 hPa 0,0 l/m SW 0,50 h 219 W/m 11,8 km/h (2 Bft)
24.08.2010 09:00 19,0 C 92 % 1007,6 hPa 0,0 l/m SW 0,50 h 298 W/m 11,8 km/h (2 Bft)
24.08.2010 10:00 20,5 C 86 % 1007,8 hPa 0,0 l/m W-SW 0,17 h 271 W/m 15,4 km/h (3 Bft)
24.08.2010 11:00 20,3 C 85 % 1008,2 hPa 0,0 l/m W 0,17 h 300 W/m 19,3 km/h (3 Bft)
24.08.2010 12:00 21,1 C 83 % 1008,3 hPa 0,0 l/m W-SW 0,42 h 413 W/m 24,4 km/h (4 Bft)
24.08.2010 13:00 23,4 C 71 % 1008,3 hPa 0,0 l/m W 0,83 h 772 W/m 32,3 km/h (5 Bft)
24.08.2010 14:00 23,8 C 67 % 1008,1 hPa 0,0 l/m S-SW 0,83 h 683 W/m 31,2 km/h (5 Bft)
24.08.2010 15:00 20,4 C 83 % 1008,9 hPa 2,2 l/m W-NW 0,25 h 232 W/m 25,8 km/h (4 Bft)
24.08.2010 16:00 19,6 C 89 % 1009,8 hPa 1,4 l/m W-NW 0,42 h 251 W/m 18,5 km/h (3 Bft)
24.08.2010 17:00 18,3 C 87 % 1011,0 hPa 0,0 l/m N-NW 0,33 h 214 W/m 21,7 km/h (4 Bft)
24.08.2010 18:00 17,9 C 80 % 1012,0 hPa 0,0 l/m NW 0,58 h 182 W/m 21,4 km/h (4 Bft)
24.08.2010 19:00 16,9 C 80 % 1012,6 hPa 0,0 l/m W 0,00 h 32 W/m 12,7 km/h (3 Bft)
24.08.2010 20:00 15,5 C 83 % 1013,4 hPa 0,0 l/m W 0,00 h 6 W/m 8,0 km/h (2 Bft)
24.08.2010 21:00 14,8 C 82 % 1014,5 hPa 0,0 l/m W-NW 0,00 h 0 W/m 7,5 km/h (2 Bft)
24.08.2010 22:00 13,8 C 83 % 1015,6 hPa 0,0 l/m W 0,00 h 0 W/m 5,9 km/h (2 Bft)
24.08.2010 23:00 12,7 C 87 % 1016,3 hPa 0,0 l/m W 0,00 h 0 W/m 4,1 km/h (1 Bft)
25.08.2010 00:00 11,5 C 93 % 1016,7 hPa 0,0 l/m N 0,00 h 0 W/m 0,7 km/h (0 Bft)
25.08.2010 01:00 11,0 C 95 % 1016,9 hPa 0,0 l/m N 0,00 h 0 W/m 0,1 km/h (0 Bft)
25.08.2010 02:00 10,9 C 95 % 1017,1 hPa 0,0 l/m N 0,00 h 0 W/m 0,0 km/h (0 Bft)
25.08.2010 03:00 11,0 C 95 % 1017,1 hPa 0,0 l/m N 0,00 h 0 W/m 0,9 km/h (0 Bft)
25.08.2010 04:00 11,2 C 95 % 1017,1 hPa 0,0 l/m N 0,00 h 0 W/m 0,0 km/h (0 Bft)
25.08.2010 05:00 10,8 C 94 % 1017,1 hPa 0,0 l/m N 0,00 h 0 W/m 0,0 km/h (0 Bft)
25.08.2010 06:00 10,4 C 94 % 1017,3 hPa 0,2 l/m N 0,08 h 12 W/m 0,1 km/h (0 Bft)
25.08.2010 07:00 10,3 C 95 % 1017,6 hPa 0,0 l/m N 0,25 h 74 W/m 0,0 km/h (0 Bft)
25.08.2010 08:00 12,1 C 94 % 1017,8 hPa 0,0 l/m N 0,25 h 172 W/m 0,3 km/h (0 Bft)
25.08.2010 09:00 14,9 C 83 % 1017,6 hPa 0,0 l/m O-SO 0,83 h 346 W/m 2,9 km/h (1 Bft)
25.08.2010 10:00 16,5 C 76 % 1017,7 hPa 0,0 l/m O-SO 0,75 h 470 W/m 4,8 km/h (1 Bft)
25.08.2010 11:00 18,1 C 68 % 1017,7 hPa 0,0 l/m SW 0,75 h 587 W/m 11,2 km/h (2 Bft)
25.08.2010 12:00 19,4 C 62 % 1017,4 hPa 0,0 l/m W-SW 0,75 h 726 W/m 14,0 km/h (3 Bft)
25.08.2010 13:00 20,4 C 55 % 1017,2 hPa 0,0 l/m W-SW 0,92 h 759 W/m 15,7 km/h (3 Bft)
25.08.2010 14:00 21,0 C 54 % 1016,9 hPa 0,0 l/m W 1,00 h 761 W/m 13,4 km/h (3 Bft)
25.08.2010 15:00 21,3 C 54 % 1016,6 hPa 0,0 l/m W 1,00 h 646 W/m 10,5 km/h (2 Bft)
25.08.2010 16:00 20,7 C 57 % 1016,3 hPa 0,0 l/m SW 0,25 h 288 W/m 10,5 km/h (2 Bft)
25.08.2010 17:00 20,4 C 59 % 1016,0 hPa 0,0 l/m W-SW 0,17 h 213 W/m 7,9 km/h (2 Bft)
25.08.2010 18:00 19,8 C 65 % 1015,9 hPa 0,0 l/m W-SW 0,00 h 104 W/m 5,1 km/h (1 Bft)
25.08.2010 19:00 18,8 C 69 % 1015,7 hPa 0,0 l/m W-SW 0,00 h 32 W/m 3,9 km/h (1 Bft)
25.08.2010 20:00 17,5 C 77 % 1015,9 hPa 0,0 l/m N 0,00 h 0 W/m 0,4 km/h (0 Bft)
25.08.2010 21:00 16,4 C 82 % 1016,4 hPa 0,0 l/m N 0,00 h 0 W/m 0,5 km/h (0 Bft)
25.08.2010 22:00 15,2 C 85 % 1016,2 hPa 0,0 l/m N 0,00 h 0 W/m 0,4 km/h (0 Bft)
25.08.2010 23:00 15,1 C 87 % 1016,0 hPa 0,0 l/m N 0,00 h 0 W/m 0,0 km/h (0 Bft)
26.08.2010 00:00 15,0 C 87 % 1016,1 hPa 0,0 l/m N 0,00 h 0 W/m 0,1 km/h (0 Bft)
26.08.2010 01:00 15,2 C 87 % 1016,2 hPa 0,0 l/m N 0,00 h 0 W/m 0,4 km/h (0 Bft)
26.08.2010 02:00 15,0 C 86 % 1016,2 hPa 0,0 l/m S-SW 0,00 h 0 W/m 1,7 km/h (1 Bft)
26.08.2010 03:00 14,2 C 88 % 1016,0 hPa 0,0 l/m N 0,00 h 0 W/m 2,7 km/h (1 Bft)
26.08.2010 04:00 13,6 C 91 % 1015,8 hPa 0,0 l/m N 0,00 h 0 W/m 2,3 km/h (1 Bft)
26.08.2010 05:00 13,9 C 93 % 1015,4 hPa 0,0 l/m S 0,00 h 0 W/m 6,9 km/h (2 Bft)
26.08.2010 06:00 14,3 C 92 % 1015,3 hPa 0,0 l/m S-SW 0,00 h 11 W/m 5,6 km/h (1 Bft)
26.08.2010 07:00 14,4 C 93 % 1015,1 hPa 0,0 l/m N 0,42 h 80 W/m 3,5 km/h (1 Bft)
26.08.2010 08:00 16,9 C 88 % 1014,6 hPa 0,0 l/m S-SW 0,92 h 276 W/m 8,3 km/h (2 Bft)
26.08.2010 09:00 20,4 C 75 % 1013,8 hPa 0,0 l/m S-SW 1,00 h 443 W/m 15,4 km/h (3 Bft)
26.08.2010 10:00 22,7 C 64 % 1013,6 hPa 0,0 l/m W-SW 1,00 h 575 W/m 19,7 km/h (3 Bft)
26.08.2010 11:00 24,3 C 61 % 1013,3 hPa 0,0 l/m W-SW 1,00 h 688 W/m 21,6 km/h (4 Bft)
26.08.2010 12:00 25,9 C 55 % 1012,8 hPa 0,0 l/m SW 1,00 h 750 W/m 24,5 km/h (4 Bft)
26.08.2010 13:00 27,1 C 53 % 1012,2 hPa 0,0 l/m SW 1,00 h 743 W/m 24,4 km/h (4 Bft)
26.08.2010 14:00 26,9 C 55 % 1011,8 hPa 0,0 l/m W-SW 0,58 h 492 W/m 22,9 km/h (4 Bft)
26.08.2010 15:00 27,9 C 53 % 1011,2 hPa 0,0 l/m W-SW 0,75 h 578 W/m 19,6 km/h (3 Bft)
26.08.2010 16:00 27,9 C 54 % 1010,5 hPa 0,0 l/m W-SW 0,75 h 468 W/m 17,0 km/h (3 Bft)
26.08.2010 17:00 27,1 C 58 % 1009,5 hPa 0,0 l/m SW 0,42 h 236 W/m 10,3 km/h (2 Bft)
26.08.2010 18:00 26,5 C 62 % 1008,5 hPa 0,0 l/m W-SW 0,50 h 173 W/m 6,8 km/h (2 Bft)
26.08.2010 19:00 23,9 C 72 % 1007,5 hPa 0,0 l/m N 0,00 h 35 W/m 1,9 km/h (1 Bft)
26.08.2010 20:00 21,7 C 80 % 1007,3 hPa 0,0 l/m N 0,00 h 7 W/m 0,4 km/h (0 Bft)
26.08.2010 21:00 20,2 C 86 % 1006,8 hPa 0,0 l/m N 0,00 h 0 W/m 0,3 km/h (0 Bft)
26.08.2010 22:00 19,8 C 87 % 1005,7 hPa 0,0 l/m N 0,00 h 0 W/m 0,3 km/h (0 Bft)
26.08.2010 23:00 19,8 C 87 % 1004,9 hPa 0,0 l/m S-SW 0,00 h 0 W/m 6,0 km/h (2 Bft)
27.08.2010 00:00 20,8 C 83 % 1004,4 hPa 0,0 l/m SW 0,00 h 0 W/m 12,6 km/h (3 Bft)
27.08.2010 01:00 21,9 C 78 % 1004,6 hPa 0,2 l/m SW 0,00 h 0 W/m 13,1 km/h (3 Bft)
27.08.2010 02:00 21,6 C 76 % 1005,2 hPa 0,0 l/m W 0,00 h 0 W/m 14,4 km/h (3 Bft)
27.08.2010 03:00 21,5 C 78 % 1005,4 hPa 0,0 l/m W-SW 0,00 h 0 W/m 13,0 km/h (3 Bft)
27.08.2010 04:00 20,8 C 82 % 1005,5 hPa 0,0 l/m SW 0,00 h 0 W/m 12,5 km/h (3 Bft)
27.08.2010 05:00 20,0 C 85 % 1005,2 hPa 0,0 l/m SW 0,00 h 0 W/m 11,6 km/h (2 Bft)
27.08.2010 06:00 19,6 C 87 % 1005,1 hPa 0,2 l/m SW 0,00 h 0 W/m 10,1 km/h (2 Bft)
27.08.2010 07:00 19,6 C 87 % 1005,0 hPa 1,0 l/m W-SW 0,00 h 5 W/m 11,6 km/h (2 Bft)
27.08.2010 08:00 19,1 C 87 % 1005,5 hPa 0,6 l/m W-SW 0,00 h 12 W/m 22,8 km/h (4 Bft)
27.08.2010 09:00 17,9 C 88 % 1006,1 hPa 0,4 l/m W 0,00 h 35 W/m 24,0 km/h (4 Bft)
27.08.2010 10:00 17,0 C 91 % 1007,3 hPa 1,2 l/m W-SW 0,00 h 64 W/m 21,3 km/h (4 Bft)
27.08.2010 11:00 16,4 C 95 % 1007,5 hPa 2,6 l/m W-SW 0,00 h 92 W/m 21,3 km/h (4 Bft)
27.08.2010 12:00 16,7 C 94 % 1007,1 hPa 0,0 l/m W-SW 0,00 h 112 W/m 25,1 km/h (4 Bft)
27.08.2010 13:00 18,0 C 90 % 1006,8 hPa 0,0 l/m W-SW 0,42 h 519 W/m 26,0 km/h (4 Bft)
27.08.2010 14:00 20,1 C 79 % 1006,5 hPa 0,0 l/m SW 0,75 h 657 W/m 28,0 km/h (4 Bft)
27.08.2010 15:00 21,3 C 74 % 1005,9 hPa 0,0 l/m SW 1,00 h 679 W/m 21,0 km/h (4 Bft)
27.08.2010 16:00 22,4 C 67 % 1005,2 hPa 0,0 l/m W 1,00 h 531 W/m 27,2 km/h (4 Bft)
27.08.2010 17:00 22,1 C 68 % 1004,8 hPa 0,0 l/m W-SW 0,58 h 265 W/m 24,4 km/h (4 Bft)
27.08.2010 18:00 20,6 C 73 % 1004,6 hPa 0,0 l/m W-SW 0,00 h 52 W/m 16,1 km/h (3 Bft)
27.08.2010 19:00 19,6 C 79 % 1004,7 hPa 0,0 l/m W-SW 0,00 h 13 W/m 12,2 km/h (2 Bft)
27.08.2010 20:00 18,1 C 86 % 1005,6 hPa 0,6 l/m W-SW 0,00 h 0 W/m 7,9 km/h (2 Bft)
27.08.2010 21:00 16,9 C 92 % 1006,1 hPa 1,0 l/m W-SW 0,00 h 0 W/m 11,9 km/h (2 Bft)
27.08.2010 22:00 16,2 C 93 % 1006,1 hPa 0,2 l/m W-SW 0,00 h 0 W/m 11,8 km/h (2 Bft)
27.08.2010 23:00 16,3 C 95 % 1006,4 hPa 1,8 l/m W-SW 0,00 h 0 W/m 13,0 km/h (3 Bft)
28.08.2010 00:00 15,8 C 95 % 1006,6 hPa 0,4 l/m W-SW 0,00 h 0 W/m 11,8 km/h (2 Bft)
28.08.2010 01:00 15,6 C 96 % 1006,8 hPa 0,0 l/m W-SW 0,00 h 0 W/m 9,9 km/h (2 Bft)
28.08.2010 02:00 15,5 C 97 % 1007,5 hPa 1,2 l/m W-SW 0,00 h 0 W/m 10,8 km/h (2 Bft)
28.08.2010 03:00 15,1 C 95 % 1008,1 hPa 0,2 l/m W 0,00 h 0 W/m 13,0 km/h (3 Bft)
28.08.2010 04:00 14,9 C 96 % 1008,4 hPa 2,2 l/m W-SW 0,00 h 0 W/m 8,7 km/h (2 Bft)
28.08.2010 05:00 13,7 C 96 % 1008,9 hPa 4,4 l/m N-NW 0,00 h 0 W/m 15,0 km/h (3 Bft)
28.08.2010 06:00 12,4 C 96 % 1009,8 hPa 0,4 l/m N 0,00 h 7 W/m 10,3 km/h (2 Bft)
28.08.2010 07:00 12,2 C 96 % 1010,5 hPa 0,0 l/m N 0,00 h 19 W/m 11,8 km/h (2 Bft)
28.08.2010 08:00 12,2 C 96 % 1011,6 hPa 0,0 l/m N 0,00 h 41 W/m 12,6 km/h (3 Bft)
28.08.2010 09:00 11,8 C 95 % 1012,9 hPa 0,0 l/m N 0,00 h 67 W/m 17,2 km/h (3 Bft)
28.08.2010 10:00 12,1 C 91 % 1014,3 hPa 0,2 l/m N-NW 0,00 h 231 W/m 14,9 km/h (3 Bft)
28.08.2010 11:00 12,2 C 89 % 1015,3 hPa 0,0 l/m N-NW 0,00 h 160 W/m 15,0 km/h (3 Bft)
28.08.2010 12:00 12,5 C 85 % 1015,7 hPa 0,0 l/m N-NW 0,00 h 312 W/m 14,5 km/h (3 Bft)
28.08.2010 13:00 13,2 C 80 % 1016,0 hPa 0,0 l/m W-NW 0,08 h 323 W/m 14,2 km/h (3 Bft)
28.08.2010 14:00 14,8 C 72 % 1016,1 hPa 0,0 l/m N-NO 0,58 h 608 W/m 14,8 km/h (3 Bft)
28.08.2010 15:00 14,8 C 68 % 1016,1 hPa 0,0 l/m NW 0,17 h 282 W/m 15,3 km/h (3 Bft)
28.08.2010 16:00 15,3 C 64 % 1016,2 hPa 0,0 l/m W-NW 0,42 h 359 W/m 13,4 km/h (3 Bft)
28.08.2010 17:00 14,9 C 65 % 1016,4 hPa 0,0 l/m NW 0,42 h 242 W/m 12,5 km/h (3 Bft)
28.08.2010 18:00 14,7 C 65 % 1016,5 hPa 0,0 l/m W-NW 0,58 h 173 W/m 10,2 km/h (2 Bft)
28.08.2010 19:00 13,4 C 72 % 1016,9 hPa 0,0 l/m W-NW 0,08 h 32 W/m 6,7 km/h (2 Bft)
28.08.2010 20:00 12,1 C 82 % 1017,5 hPa 0,0 l/m N 0,08 h 5 W/m 0,5 km/h (0 Bft)
28.08.2010 21:00 11,0 C 86 % 1018,0 hPa 0,0 l/m N 0,00 h 0 W/m 0,4 km/h (0 Bft)
28.08.2010 22:00 10,8 C 90 % 1018,3 hPa 0,0 l/m W-SW 0,00 h 0 W/m 7,0 km/h (2 Bft)
28.08.2010 23:00 11,3 C 89 % 1018,5 hPa 0,0 l/m W 0,00 h 0 W/m 10,2 km/h (2 Bft)
29.08.2010 00:00 11,4 C 87 % 1018,5 hPa 0,0 l/m W-NW 0,00 h 0 W/m 6,2 km/h (2 Bft)
29.08.2010 01:00 10,9 C 85 % 1018,1 hPa 0,0 l/m W-SW 0,00 h 0 W/m 8,0 km/h (2 Bft)
29.08.2010 02:00 10,6 C 88 % 1017,8 hPa 0,0 l/m S-SW 0,00 h 0 W/m 5,6 km/h (1 Bft)
29.08.2010 03:00 10,5 C 90 % 1017,9 hPa 0,0 l/m S-SW 0,00 h 0 W/m 3,3 km/h (1 Bft)
29.08.2010 04:00 10,3 C 92 % 1017,9 hPa 0,0 l/m SW 0,00 h 0 W/m 4,3 km/h (1 Bft)
29.08.2010 05:00 10,4 C 92 % 1017,7 hPa 0,0 l/m SW 0,00 h 0 W/m 10,2 km/h (2 Bft)
29.08.2010 06:00 10,4 C 92 % 1017,5 hPa 0,0 l/m W-SW 0,00 h 9 W/m 8,3 km/h (2 Bft)
29.08.2010 07:00 10,5 C 92 % 1017,4 hPa 0,0 l/m W-SW 0,00 h 33 W/m 9,7 km/h (2 Bft)
29.08.2010 08:00 11,4 C 90 % 1017,4 hPa 0,0 l/m W-SW 0,75 h 251 W/m 12,1 km/h (2 Bft)
29.08.2010 09:00 13,6 C 78 % 1017,4 hPa 0,0 l/m W 1,00 h 430 W/m 17,6 km/h (3 Bft)
29.08.2010 10:00 15,0 C 64 % 1017,2 hPa 0,0 l/m W 0,92 h 593 W/m 19,4 km/h (3 Bft)
29.08.2010 11:00 14,9 C 59 % 1016,9 hPa 0,0 l/m W-NW 0,33 h 363 W/m 19,2 km/h (3 Bft)
29.08.2010 12:00 15,3 C 61 % 1016,4 hPa 0,0 l/m W 0,00 h 223 W/m 17,7 km/h (3 Bft)
29.08.2010 13:00 13,6 C 72 % 1016,3 hPa 0,0 l/m W 0,00 h 205 W/m 18,9 km/h (3 Bft)
29.08.2010 14:00 15,0 C 68 % 1015,7 hPa 0,0 l/m W 0,42 h 496 W/m 19,4 km/h (3 Bft)
29.08.2010 15:00 15,8 C 63 % 1014,9 hPa 0,0 l/m W 0,50 h 482 W/m 20,4 km/h (4 Bft)
29.08.2010 16:00 15,8 C 64 % 1014,4 hPa 0,0 l/m W-SW 0,33 h 341 W/m 20,1 km/h (4 Bft)
29.08.2010 17:00 15,9 C 61 % 1013,8 hPa 0,0 l/m W 0,50 h 259 W/m 18,2 km/h (3 Bft)
29.08.2010 18:00 15,3 C 63 % 1013,4 hPa 0,0 l/m W-SW 0,00 h 83 W/m 13,0 km/h (3 Bft)
29.08.2010 19:00 14,9 C 66 % 1012,9 hPa 0,0 l/m W-SW 0,00 h 22 W/m 9,5 km/h (2 Bft)
29.08.2010 20:00 14,1 C 68 % 1012,9 hPa 0,0 l/m W-SW 0,00 h 0 W/m 12,5 km/h (3 Bft)
29.08.2010 21:00 13,2 C 76 % 1012,9 hPa 0,0 l/m W-NW 0,00 h 0 W/m 8,6 km/h (2 Bft)
29.08.2010 22:00 12,3 C 82 % 1012,2 hPa 0,2 l/m W-SW 0,00 h 0 W/m 8,9 km/h (2 Bft)
29.08.2010 23:00 11,7 C 87 % 1012,0 hPa 1,4 l/m W 0,00 h 0 W/m 10,7 km/h (2 Bft)
Min-Datum _ 25.08.10 25.08.10 27.08.10 - - - - 23.08.10
_ Min-Zeit 06:55 15:20 00:25 - - - - 00:00
Minimum _ 10,1 C 50 % 1004,2 hPa - - - - 0,0 km/h (0 Bft)
Max-Datum _ 26.08.10 24.08.10 28.08.10 28.08.10 - 23.08.10 28.08.10 24.08.10
_ Max-Zeit 15:50 04:40 23:10 05:50 - 06:40 14:35 13:15
Maximum _ 28,6 C 98 % 1018,6 hPa 4,4 l/m - 0,08 h 1067 W/m 45,1 km/h
SW (6 Bft)
Durchschnitt _ 17,2 C 82 % 1011,6 hPa #26,8 l/m W-SW #34:00 h 266 W/m 11,0 km/h (2 Bft)